createdAt,value
2018-06-09T00:00:02.272Z,87.40
2018-06-09T00:00:36.074Z,86.50
2018-06-09T00:01:09.124Z,86.50
2018-06-09T00:01:42.172Z,86.50
2018-06-09T00:02:15.240Z,86.50
2018-06-09T00:02:48.271Z,86.20
2018-06-09T00:03:22.085Z,87.50
2018-06-09T00:03:55.120Z,87.40
2018-06-09T00:04:28.923Z,86.90
2018-06-09T00:05:02.740Z,86.50
2018-06-09T00:05:35.772Z,86.60
2018-06-09T00:06:08.823Z,86.60
2018-06-09T00:06:41.868Z,86.60
2018-06-09T00:07:14.940Z,87.00
2018-06-09T00:07:47.984Z,86.70
2018-06-09T00:08:21.784Z,86.70
2018-06-09T00:08:55.581Z,87.40
2018-06-09T00:09:28.616Z,86.50
2018-06-09T00:10:01.681Z,86.80
2018-06-09T00:10:34.737Z,86.40
2018-06-09T00:11:07.759Z,86.20
2018-06-09T00:11:41.560Z,86.00
2018-06-09T00:12:15.356Z,85.90
2018-06-09T00:12:49.482Z,85.90
2018-06-09T00:13:22.528Z,85.90
2018-06-09T00:13:55.569Z,86.00
2018-06-09T00:14:28.621Z,86.00
2018-06-09T00:15:01.658Z,86.00
2018-06-09T00:15:34.692Z,86.10
2018-06-09T00:16:07.751Z,86.00
2018-06-09T00:16:40.795Z,86.00
2018-06-09T00:17:14.092Z,86.00
2018-06-09T00:17:47.143Z,85.90
2018-06-09T00:18:20.255Z,86.10
2018-06-09T00:18:53.291Z,86.20
2018-06-09T00:19:26.312Z,86.30
2018-06-09T00:19:59.352Z,86.20
2018-06-09T00:20:32.378Z,86.20
2018-06-09T00:21:05.422Z,86.40
2018-06-09T00:21:38.451Z,86.50
2018-06-09T00:22:12.255Z,86.50
2018-06-09T00:22:46.071Z,86.70
2018-06-09T00:23:19.106Z,86.60
2018-06-09T00:23:52.131Z,86.70
2018-06-09T00:24:25.180Z,86.60
2018-06-09T00:24:58.988Z,87.10
2018-06-09T00:25:32.037Z,87.10
2018-06-09T00:26:05.076Z,86.80
2018-06-09T00:26:38.103Z,87.00
2018-06-09T00:27:11.140Z,87.30
2018-06-09T00:27:44.194Z,87.30
2018-06-09T00:28:17.237Z,87.90
2018-06-09T00:28:50.299Z,87.90
2018-06-09T00:29:23.328Z,87.90
2018-06-09T00:29:56.366Z,88.60
2018-06-09T00:30:29.408Z,88.00
2018-06-09T00:31:02.473Z,87.90
2018-06-09T00:31:35.507Z,88.10
2018-06-09T00:32:08.548Z,88.30
2018-06-09T00:32:41.589Z,88.10
2018-06-09T00:33:14.645Z,88.50
2018-06-09T00:33:47.799Z,88.20
2018-06-09T00:34:20.834Z,88.50
2018-06-09T00:34:53.959Z,88.30
2018-06-09T00:35:26.991Z,88.40
2018-06-09T00:36:00.020Z,88.50
2018-06-09T00:36:33.052Z,88.50
2018-06-09T00:37:06.084Z,88.70
2018-06-09T00:37:39.118Z,88.60
2018-06-09T00:38:12.176Z,88.90
2018-06-09T00:38:45.216Z,89.00
2018-06-09T00:39:18.249Z,89.00
2018-06-09T00:39:51.289Z,89.00
2018-06-09T00:40:24.328Z,89.40
2018-06-09T00:40:57.364Z,88.90
2018-06-09T00:41:30.432Z,89.20
2018-06-09T00:42:03.464Z,89.40
2018-06-09T00:42:36.499Z,89.20
2018-06-09T00:43:09.549Z,89.50
2018-06-09T00:43:42.593Z,89.40
2018-06-09T00:44:15.624Z,89.50
2018-06-09T00:44:48.651Z,89.60
2018-06-09T00:45:22.450Z,89.80
2018-06-09T00:45:56.253Z,89.90
2018-06-09T00:46:29.299Z,89.90
2018-06-09T00:47:02.347Z,90.00
2018-06-09T00:47:35.383Z,89.90
2018-06-09T00:48:08.588Z,89.80
2018-06-09T00:48:41.612Z,89.50
2018-06-09T00:49:14.645Z,89.70
2018-06-09T00:49:48.444Z,90.10
2018-06-09T00:50:21.485Z,90.10
2018-06-09T00:50:54.523Z,90.00
2018-06-09T00:51:27.560Z,90.00
2018-06-09T00:52:01.372Z,90.00
2018-06-09T00:52:34.416Z,90.00
2018-06-09T00:53:07.463Z,89.90
2018-06-09T00:53:40.507Z,90.00
2018-06-09T00:54:13.548Z,90.10
2018-06-09T00:54:46.588Z,90.10
2018-06-09T00:55:19.685Z,90.20
2018-06-09T00:55:52.868Z,90.20
2018-06-09T00:56:37.820Z,90.00
2018-06-09T00:57:10.851Z,89.90
2018-06-09T00:57:44.655Z,90.00
2018-06-09T00:58:18.482Z,90.20
2018-06-09T00:58:52.270Z,90.00
2018-06-09T00:59:25.308Z,90.00
2018-06-09T00:59:58.336Z,90.00
2018-06-09T01:00:31.412Z,89.90
2018-06-09T01:01:04.452Z,90.00
2018-06-09T01:01:37.483Z,90.10
2018-06-09T01:02:10.545Z,90.00
2018-06-09T01:02:43.572Z,90.10
2018-06-09T01:03:16.620Z,89.90
2018-06-09T01:03:50.435Z,90.00
2018-06-09T01:04:23.485Z,90.00
2018-06-09T01:04:56.614Z,89.90
2018-06-09T01:05:29.699Z,89.90
2018-06-09T01:06:02.757Z,90.20
2018-06-09T01:06:35.793Z,90.10
2018-06-09T01:07:09.583Z,90.10
2018-06-09T01:07:43.399Z,90.20
2018-06-09T01:08:16.436Z,90.10
2018-06-09T01:08:49.484Z,90.10
2018-06-09T01:09:23.280Z,90.10
2018-06-09T01:09:56.321Z,90.10
2018-06-09T01:10:29.343Z,90.20
2018-06-09T01:11:02.377Z,90.20
2018-06-09T01:11:35.424Z,90.20
2018-06-09T01:12:08.560Z,90.20
2018-06-09T01:12:41.616Z,90.20
2018-06-09T01:13:14.664Z,90.20
2018-06-09T01:13:47.892Z,90.20
2018-06-09T01:14:20.912Z,90.10
2018-06-09T01:14:53.964Z,90.30
2018-06-09T01:15:27.771Z,90.30
2018-06-09T01:16:01.587Z,90.20
2018-06-09T01:16:34.615Z,90.40
2018-06-09T01:17:07.663Z,90.30
2018-06-09T01:17:40.698Z,90.30
2018-06-09T01:18:13.756Z,90.30
2018-06-09T01:18:47.583Z,90.30
2018-06-09T01:19:20.637Z,90.30
2018-06-09T01:19:54.468Z,90.20
2018-06-09T01:20:28.280Z,90.40
2018-06-09T01:21:01.333Z,90.80
2018-06-09T01:21:34.385Z,90.30
2018-06-09T01:22:07.424Z,90.40
2018-06-09T01:22:40.482Z,90.40
2018-06-09T01:23:13.525Z,90.30
2018-06-09T01:23:46.585Z,90.30
2018-06-09T01:24:19.619Z,90.40
2018-06-09T01:24:53.459Z,90.40
2018-06-09T01:25:26.491Z,90.40
2018-06-09T01:25:59.550Z,90.40
2018-06-09T01:26:32.621Z,90.50
2018-06-09T01:27:05.659Z,90.40
2018-06-09T01:27:38.701Z,90.40
2018-06-09T01:28:12.509Z,90.40
2018-06-09T01:28:45.570Z,90.40
2018-06-09T01:29:19.360Z,90.40
2018-06-09T01:29:52.482Z,90.40
2018-06-09T01:30:25.517Z,90.40
2018-06-09T01:30:58.562Z,90.50
2018-06-09T01:31:31.596Z,90.40
2018-06-09T01:32:04.667Z,90.60
2018-06-09T01:32:37.716Z,90.50
2018-06-09T01:33:11.523Z,90.40
2018-06-09T01:33:44.572Z,90.30
2018-06-09T01:34:18.399Z,90.60
2018-06-09T01:34:51.430Z,90.50
2018-06-09T01:35:24.469Z,90.50
2018-06-09T01:35:57.500Z,90.40
2018-06-09T01:36:31.302Z,90.50
2018-06-09T01:37:04.336Z,90.50
2018-06-09T01:37:37.375Z,90.50
2018-06-09T01:38:10.420Z,90.60
2018-06-09T01:38:43.450Z,90.60
2018-06-09T01:39:16.524Z,90.70
2018-06-09T01:39:49.544Z,90.60
2018-06-09T01:40:22.820Z,90.60
2018-06-09T01:40:56.663Z,90.80
2018-06-09T01:41:29.701Z,90.70
2018-06-09T01:42:04.316Z,90.50
2018-06-09T01:42:37.367Z,90.50
2018-06-09T01:43:11.178Z,90.70
2018-06-09T01:43:44.224Z,90.70
2018-06-09T01:44:17.268Z,90.80
2018-06-09T01:44:50.302Z,90.70
2018-06-09T01:45:23.343Z,90.80
2018-06-09T01:45:56.385Z,90.80
2018-06-09T01:46:29.411Z,90.90
2018-06-09T01:47:03.213Z,90.90
2018-06-09T01:47:36.252Z,90.90
2018-06-09T01:48:09.312Z,90.80
2018-06-09T01:48:42.344Z,90.90
2018-06-09T01:49:15.408Z,90.90
2018-06-09T01:49:48.443Z,90.90
2018-06-09T01:50:21.485Z,90.90
2018-06-09T01:50:54.527Z,91.00
2018-06-09T01:51:27.557Z,90.80
2018-06-09T01:52:00.600Z,90.80
2018-06-09T01:52:33.635Z,90.80
2018-06-09T01:53:06.769Z,90.70
2018-06-09T01:53:39.817Z,90.80
2018-06-09T01:54:12.863Z,91.00
2018-06-09T01:54:46.672Z,90.90
2018-06-09T01:55:20.479Z,90.90
2018-06-09T01:55:53.517Z,90.90
2018-06-09T01:56:26.556Z,90.80
2018-06-09T01:56:59.600Z,91.00
2018-06-09T01:57:32.628Z,90.80
2018-06-09T01:58:05.664Z,91.00
2018-06-09T01:58:38.711Z,91.00
2018-06-09T01:59:12.525Z,91.00
2018-06-09T01:59:45.569Z,90.90
2018-06-09T02:00:18.689Z,90.90
2018-06-09T02:00:51.720Z,90.90
2018-06-09T02:01:24.857Z,90.90
2018-06-09T02:01:57.904Z,90.80
2018-06-09T02:02:30.944Z,90.80
2018-06-09T02:03:04.740Z,90.90
2018-06-09T02:03:38.564Z,90.80
2018-06-09T02:04:11.604Z,90.80
2018-06-09T02:04:44.659Z,91.00
2018-06-09T02:05:17.701Z,91.00
2018-06-09T02:05:50.741Z,91.00
2018-06-09T02:06:23.787Z,90.90
2018-06-09T02:06:56.839Z,90.90
2018-06-09T02:07:29.856Z,91.10
2018-06-09T02:08:02.905Z,91.10
2018-06-09T02:08:35.960Z,91.20
2018-06-09T02:09:09.033Z,91.20
2018-06-09T02:09:42.074Z,91.30
2018-06-09T02:10:15.110Z,91.20
2018-06-09T02:10:48.159Z,91.20
2018-06-09T02:11:21.217Z,91.30
2018-06-09T02:11:54.275Z,91.20
2018-06-09T02:12:27.309Z,91.20
2018-06-09T02:13:00.352Z,91.30
2018-06-09T02:13:33.400Z,91.30
2018-06-09T02:14:06.449Z,91.50
2018-06-09T02:14:40.271Z,91.20
2018-06-09T02:15:13.308Z,91.50
2018-06-09T02:15:46.359Z,91.60
2018-06-09T02:16:19.383Z,91.50
2018-06-09T02:16:53.180Z,91.50
2018-06-09T02:17:26.220Z,91.50
2018-06-09T02:17:59.264Z,91.60
2018-06-09T02:18:32.295Z,91.50
2018-06-09T02:19:06.103Z,91.50
2018-06-09T02:19:39.147Z,91.60
2018-06-09T02:20:12.189Z,91.50
2018-06-09T02:20:45.981Z,91.60
2018-06-09T02:21:19.014Z,91.60
2018-06-09T02:21:52.051Z,91.50
2018-06-09T02:22:25.196Z,91.40
2018-06-09T02:22:58.231Z,91.50
2018-06-09T02:23:31.291Z,91.40
2018-06-09T02:24:05.092Z,91.60
2018-06-09T02:24:38.994Z,91.40
2018-06-09T02:25:12.816Z,91.50
2018-06-09T02:25:45.912Z,91.90
2018-06-09T02:26:18.943Z,91.60
2018-06-09T02:26:52.856Z,91.60
2018-06-09T02:27:25.879Z,91.60
2018-06-09T02:27:58.920Z,91.60
2018-06-09T02:28:31.963Z,91.60
2018-06-09T02:29:04.999Z,91.60
2018-06-09T02:29:38.043Z,91.50
2018-06-09T02:30:11.080Z,91.60
2018-06-09T02:30:44.955Z,91.80
2018-06-09T02:31:17.990Z,91.80
2018-06-09T02:31:51.059Z,91.60
2018-06-09T02:32:24.095Z,91.70
2018-06-09T02:32:57.131Z,91.60
2018-06-09T02:33:30.187Z,91.70
2018-06-09T02:34:03.224Z,91.80
2018-06-09T02:34:36.270Z,92.20
2018-06-09T02:35:09.320Z,91.80
2018-06-09T02:35:42.365Z,91.70
2018-06-09T02:36:15.406Z,91.60
2018-06-09T02:36:48.437Z,91.60
2018-06-09T02:37:21.486Z,91.80
2018-06-09T02:37:54.513Z,91.70
2018-06-09T02:38:27.559Z,91.70
2018-06-09T02:39:00.584Z,91.70
2018-06-09T02:39:33.644Z,91.70
2018-06-09T02:40:06.695Z,91.70
2018-06-09T02:40:39.852Z,91.80
2018-06-09T02:41:12.890Z,91.80
2018-06-09T02:41:46.011Z,91.90
2018-06-09T02:42:19.032Z,91.80
2018-06-09T02:42:52.082Z,91.90
2018-06-09T02:43:25.116Z,91.80
2018-06-09T02:43:58.154Z,91.90
2018-06-09T02:44:31.228Z,91.90
2018-06-09T02:45:04.265Z,91.90
2018-06-09T02:45:37.312Z,91.90
2018-06-09T02:46:10.348Z,92.00
2018-06-09T02:46:43.386Z,92.00
2018-06-09T02:47:16.421Z,92.00
2018-06-09T02:47:49.480Z,92.10
2018-06-09T02:48:22.507Z,92.00
2018-06-09T02:48:55.540Z,92.00
2018-06-09T02:49:28.616Z,92.00
2018-06-09T02:50:02.399Z,92.00
2018-06-09T02:50:36.208Z,92.00
2018-06-09T02:51:10.015Z,92.10
2018-06-09T02:51:43.045Z,92.10
2018-06-09T02:52:16.097Z,92.50
2018-06-09T02:52:49.904Z,92.20
2018-06-09T02:53:22.935Z,92.20
2018-06-09T02:53:55.969Z,92.30
2018-06-09T02:54:29.037Z,92.20
2018-06-09T02:55:02.840Z,92.30
2018-06-09T02:55:36.657Z,92.60
2018-06-09T02:56:09.699Z,92.20
2018-06-09T02:56:42.753Z,92.30
2018-06-09T02:57:15.799Z,92.30
2018-06-09T02:57:48.981Z,92.20
2018-06-09T02:58:22.022Z,92.30
2018-06-09T02:58:55.056Z,92.40
2018-06-09T02:59:28.117Z,92.50
2018-06-09T03:00:01.182Z,92.40
2018-06-09T03:00:34.216Z,92.40
2018-06-09T03:01:08.012Z,92.40
2018-06-09T03:01:41.819Z,92.40
2018-06-09T03:02:14.871Z,92.40
2018-06-09T03:02:47.905Z,92.50
2018-06-09T03:03:20.957Z,92.50
2018-06-09T03:03:54.000Z,92.40
2018-06-09T03:04:27.060Z,92.40
2018-06-09T03:05:00.337Z,92.40
2018-06-09T03:05:33.389Z,92.50
2018-06-09T03:06:06.436Z,92.50
2018-06-09T03:06:39.484Z,92.60
2018-06-09T03:07:12.526Z,93.00
2018-06-09T03:07:45.565Z,92.60
2018-06-09T03:08:18.609Z,92.70
2018-06-09T03:08:51.644Z,92.70
2018-06-09T03:09:24.691Z,92.60
2018-06-09T03:09:57.744Z,92.70
2018-06-09T03:10:30.780Z,92.70
2018-06-09T03:11:03.831Z,92.80
2018-06-09T03:11:36.868Z,92.70
2018-06-09T03:12:09.900Z,92.80
2018-06-09T03:12:42.932Z,92.90
2018-06-09T03:13:15.971Z,92.90
2018-06-09T03:13:49.089Z,92.90
2018-06-09T03:14:22.137Z,92.90
2018-06-09T03:14:55.182Z,93.00
2018-06-09T03:15:28.232Z,92.90
2018-06-09T03:16:01.270Z,92.90
2018-06-09T03:16:34.303Z,92.80
2018-06-09T03:17:07.351Z,92.70
2018-06-09T03:17:40.373Z,92.80
2018-06-09T03:18:13.419Z,92.80
2018-06-09T03:18:46.469Z,93.30
2018-06-09T03:19:19.502Z,93.20
2018-06-09T03:19:53.328Z,92.90
2018-06-09T03:20:26.383Z,92.80
2018-06-09T03:20:59.432Z,92.80
2018-06-09T03:21:32.469Z,92.80
2018-06-09T03:22:05.507Z,92.80
2018-06-09T03:22:38.548Z,92.80
2018-06-09T03:23:13.095Z,93.00
2018-06-09T03:23:46.127Z,93.00
2018-06-09T03:24:19.175Z,92.90
2018-06-09T03:24:52.214Z,92.90
2018-06-09T03:25:25.268Z,93.00
2018-06-09T03:25:58.305Z,93.00
2018-06-09T03:26:31.344Z,93.10
2018-06-09T03:27:04.383Z,93.00
2018-06-09T03:27:37.420Z,93.00
2018-06-09T03:28:10.454Z,93.00
2018-06-09T03:28:44.262Z,93.00
2018-06-09T03:29:17.293Z,93.00
2018-06-09T03:29:50.336Z,93.10
2018-06-09T03:30:23.384Z,93.20
2018-06-09T03:30:56.433Z,93.10
2018-06-09T03:31:29.459Z,93.20
2018-06-09T03:32:02.511Z,93.10
2018-06-09T03:32:35.570Z,93.20
2018-06-09T03:33:08.907Z,93.20
2018-06-09T03:33:41.946Z,93.10
2018-06-09T03:34:14.991Z,93.30
2018-06-09T03:34:48.806Z,93.30
2018-06-09T03:35:22.629Z,93.30
2018-06-09T03:35:55.669Z,93.30
2018-06-09T03:36:28.712Z,93.40
2018-06-09T03:37:01.744Z,93.50
2018-06-09T03:37:34.771Z,93.50
2018-06-09T03:38:08.584Z,93.70
2018-06-09T03:38:41.618Z,93.70
2018-06-09T03:39:14.664Z,93.70
2018-06-09T03:39:47.700Z,93.70
2018-06-09T03:40:21.553Z,93.60
2018-06-09T03:40:55.352Z,93.50
2018-06-09T03:41:28.401Z,93.50
2018-06-09T03:42:01.440Z,93.60
2018-06-09T03:42:34.482Z,93.60
2018-06-09T03:43:07.542Z,93.60
2018-06-09T03:43:40.564Z,93.60
2018-06-09T03:44:13.604Z,93.60
2018-06-09T03:44:46.650Z,93.60
2018-06-09T03:45:19.696Z,93.60
2018-06-09T03:45:52.764Z,93.70
2018-06-09T03:46:26.590Z,94.00
2018-06-09T03:46:59.620Z,93.90
2018-06-09T03:47:33.428Z,93.80
2018-06-09T03:48:06.536Z,93.80
2018-06-09T03:48:39.597Z,93.80
2018-06-09T03:49:12.640Z,93.60
2018-06-09T03:49:46.445Z,93.80
2018-06-09T03:50:19.482Z,93.80
2018-06-09T03:50:52.544Z,93.70
2018-06-09T03:51:25.608Z,93.70
2018-06-09T03:51:59.082Z,93.80
2018-06-09T03:52:32.370Z,93.80
2018-06-09T03:53:05.427Z,93.90
2018-06-09T03:53:38.723Z,93.90
2018-06-09T03:54:11.776Z,94.00
2018-06-09T03:54:44.830Z,93.90
2018-06-09T03:55:18.631Z,94.00
2018-06-09T03:55:51.692Z,93.90
2018-06-09T03:56:24.821Z,93.90
2018-06-09T03:56:57.870Z,93.90
2018-06-09T03:57:30.904Z,93.90
2018-06-09T03:58:03.988Z,93.80
2018-06-09T03:58:37.037Z,93.90
2018-06-09T03:59:10.080Z,93.80
2018-06-09T03:59:43.129Z,93.70
2018-06-09T04:00:16.173Z,93.70
2018-06-09T04:00:49.235Z,93.70
2018-06-09T04:01:22.288Z,93.50
2018-06-09T04:01:55.334Z,93.50
2018-06-09T04:02:28.379Z,93.60
2018-06-09T04:03:01.405Z,93.50
2018-06-09T04:03:34.445Z,93.50
2018-06-09T04:04:08.248Z,93.50
2018-06-09T04:04:42.049Z,93.50
2018-06-09T04:05:15.083Z,93.50
2018-06-09T04:05:48.139Z,93.50
2018-06-09T04:06:21.179Z,93.40
2018-06-09T04:06:54.220Z,93.50
2018-06-09T04:07:27.254Z,93.60
2018-06-09T04:08:00.293Z,93.60
2018-06-09T04:08:33.335Z,93.60
2018-06-09T04:09:06.492Z,93.70
2018-06-09T04:09:39.539Z,93.70
2018-06-09T04:10:12.586Z,93.90
2018-06-09T04:10:46.404Z,93.80
2018-06-09T04:11:19.449Z,93.80
2018-06-09T04:11:52.485Z,93.80
2018-06-09T04:12:25.524Z,93.90
2018-06-09T04:12:58.584Z,94.00
2018-06-09T04:13:31.628Z,94.10
2018-06-09T04:14:04.690Z,94.20
2018-06-09T04:14:37.719Z,94.30
2018-06-09T04:15:10.756Z,94.20
2018-06-09T04:15:43.802Z,94.10
2018-06-09T04:16:16.844Z,94.00
2018-06-09T04:16:49.887Z,94.00
2018-06-09T04:17:23.683Z,93.90
2018-06-09T04:17:57.484Z,94.00
2018-06-09T04:18:31.284Z,93.80
2018-06-09T04:19:04.354Z,93.80
2018-06-09T04:19:37.391Z,93.90
2018-06-09T04:20:10.439Z,93.90
2018-06-09T04:20:43.541Z,93.80
2018-06-09T04:21:16.590Z,93.70
2018-06-09T04:21:49.637Z,94.00
2018-06-09T04:22:22.682Z,93.90
2018-06-09T04:22:55.716Z,93.70
2018-06-09T04:23:28.816Z,93.60
2018-06-09T04:24:01.849Z,93.40
2018-06-09T04:24:34.896Z,93.40
2018-06-09T04:25:07.936Z,93.60
2018-06-09T04:25:40.984Z,93.60
2018-06-09T04:26:14.035Z,93.70
2018-06-09T04:26:47.063Z,93.60
2018-06-09T04:27:20.101Z,93.60
2018-06-09T04:27:53.147Z,93.40
2018-06-09T04:28:26.239Z,93.30
2018-06-09T04:28:59.225Z,93.30
2018-06-09T04:29:32.256Z,93.20
2018-06-09T04:30:05.296Z,93.30
2018-06-09T04:30:38.339Z,93.30
2018-06-09T04:31:11.391Z,93.50
2018-06-09T04:31:44.441Z,93.50
2018-06-09T04:32:17.504Z,93.50
2018-06-09T04:32:50.545Z,93.40
2018-06-09T04:33:23.577Z,93.40
2018-06-09T04:33:56.645Z,93.20
2018-06-09T04:34:29.920Z,93.70
2018-06-09T04:35:02.917Z,93.30
2018-06-09T04:35:37.061Z,93.30
2018-06-09T04:36:10.112Z,93.30
2018-06-09T04:36:43.152Z,93.20
2018-06-09T04:37:16.192Z,93.10
2018-06-09T04:37:49.244Z,93.00
2018-06-09T04:38:22.282Z,93.00
2018-06-09T04:38:55.311Z,93.10
2018-06-09T04:39:28.368Z,93.10
2018-06-09T04:40:01.449Z,93.10
2018-06-09T04:40:35.227Z,93.30
2018-06-09T04:41:08.267Z,93.30
2018-06-09T04:41:41.318Z,93.30
2018-06-09T04:42:14.365Z,93.40
2018-06-09T04:42:47.424Z,93.40
2018-06-09T04:43:21.240Z,93.40
2018-06-09T04:43:54.275Z,93.40
2018-06-09T04:44:27.308Z,93.40
2018-06-09T04:45:00.352Z,93.40
2018-06-09T04:45:33.381Z,93.40
2018-06-09T04:46:06.475Z,93.50
2018-06-09T04:46:39.472Z,93.40
2018-06-09T04:47:12.517Z,93.40
2018-06-09T04:47:45.554Z,93.40
2018-06-09T04:48:18.588Z,93.50
2018-06-09T04:48:51.627Z,93.40
2018-06-09T04:49:24.672Z,93.40
2018-06-09T04:49:57.715Z,93.50
2018-06-09T04:50:30.762Z,93.30
2018-06-09T04:51:03.801Z,93.30
2018-06-09T04:51:36.869Z,93.40
2018-06-09T04:52:10.089Z,93.40
2018-06-09T04:52:43.076Z,93.50
2018-06-09T04:53:16.104Z,93.40
2018-06-09T04:53:49.144Z,93.40
2018-06-09T04:54:22.176Z,93.40
2018-06-09T04:54:55.207Z,93.40
2018-06-09T04:55:28.247Z,93.40
2018-06-09T04:56:02.057Z,93.40
2018-06-09T04:56:35.102Z,93.40
2018-06-09T04:57:08.139Z,93.40
2018-06-09T04:57:41.193Z,93.40
2018-06-09T04:58:14.232Z,93.30
2018-06-09T04:58:47.267Z,93.40
2018-06-09T04:59:20.364Z,93.50
2018-06-09T04:59:53.339Z,93.50
2018-06-09T05:00:26.377Z,93.50
2018-06-09T05:00:59.413Z,93.50
2018-06-09T05:01:33.213Z,93.70
2018-06-09T05:02:07.043Z,93.70
2018-06-09T05:02:40.072Z,93.70
2018-06-09T05:03:13.104Z,93.80
2018-06-09T05:03:46.904Z,93.90
2018-06-09T05:04:20.708Z,93.90
2018-06-09T05:04:53.757Z,93.90
2018-06-09T05:05:26.779Z,93.90
2018-06-09T05:05:59.820Z,93.90
2018-06-09T05:06:33.627Z,94.00
2018-06-09T05:07:06.676Z,94.00
2018-06-09T05:07:39.716Z,94.00
2018-06-09T05:08:12.759Z,94.00
2018-06-09T05:08:45.810Z,94.00
2018-06-09T05:09:18.851Z,94.10
2018-06-09T05:09:51.876Z,94.20
2018-06-09T05:10:24.920Z,94.20
2018-06-09T05:10:57.966Z,94.20
2018-06-09T05:11:31.012Z,94.20
2018-06-09T05:12:04.846Z,94.20
2018-06-09T05:12:37.895Z,94.20
2018-06-09T05:13:10.941Z,94.30
2018-06-09T05:13:43.977Z,94.40
2018-06-09T05:14:17.007Z,94.40
2018-06-09T05:14:50.804Z,94.30
2018-06-09T05:15:24.628Z,94.20
2018-06-09T05:15:57.672Z,94.20
2018-06-09T05:16:31.474Z,94.40
2018-06-09T05:17:05.287Z,94.50
2018-06-09T05:17:38.322Z,94.50
2018-06-09T05:18:11.360Z,94.30
2018-06-09T05:18:44.437Z,94.40
2018-06-09T05:19:17.500Z,94.50
2018-06-09T05:19:50.588Z,94.30
2018-06-09T05:20:23.628Z,94.30
2018-06-09T05:20:56.663Z,94.40
2018-06-09T05:21:29.716Z,94.30
2018-06-09T05:22:02.768Z,94.40
2018-06-09T05:22:35.809Z,94.30
2018-06-09T05:23:09.624Z,94.40
2018-06-09T05:23:42.668Z,94.40
2018-06-09T05:24:15.711Z,94.40
2018-06-09T05:24:48.756Z,94.30
2018-06-09T05:25:21.818Z,94.40
2018-06-09T05:25:54.855Z,94.40
2018-06-09T05:26:27.896Z,94.50
2018-06-09T05:27:00.957Z,94.30
2018-06-09T05:27:33.993Z,94.30
2018-06-09T05:28:07.843Z,94.50
2018-06-09T05:28:41.596Z,94.30
2018-06-09T05:29:14.649Z,94.30
2018-06-09T05:29:48.460Z,94.00
2018-06-09T05:30:21.581Z,94.00
2018-06-09T05:30:54.624Z,94.40
2018-06-09T05:31:27.656Z,93.90
2018-06-09T05:32:00.705Z,93.90
2018-06-09T05:32:33.789Z,93.80
2018-06-09T05:33:06.835Z,93.80
2018-06-09T05:33:39.880Z,93.80
2018-06-09T05:34:12.924Z,93.70
2018-06-09T05:34:45.985Z,93.60
2018-06-09T05:35:19.013Z,93.70
2018-06-09T05:35:52.052Z,93.60
2018-06-09T05:36:25.092Z,93.50
2018-06-09T05:36:58.145Z,93.60
2018-06-09T05:37:31.183Z,93.60
2018-06-09T05:38:04.988Z,93.40
2018-06-09T05:38:38.788Z,93.30
2018-06-09T05:39:12.600Z,93.40
2018-06-09T05:39:45.847Z,93.40
2018-06-09T05:40:19.653Z,93.20
2018-06-09T05:40:53.460Z,93.20
2018-06-09T05:41:26.489Z,93.20
2018-06-09T05:41:59.533Z,93.10
2018-06-09T05:42:32.581Z,93.10
2018-06-09T05:43:05.620Z,93.00
2018-06-09T05:43:38.660Z,93.10
2018-06-09T05:44:11.703Z,93.10
2018-06-09T05:44:44.744Z,93.10
2018-06-09T05:45:17.785Z,93.20
2018-06-09T05:45:50.816Z,93.10
2018-06-09T05:46:23.868Z,92.90
2018-06-09T05:46:56.911Z,93.10
2018-06-09T05:47:30.112Z,93.10
2018-06-09T05:48:03.154Z,93.10
2018-06-09T05:48:36.184Z,93.00
2018-06-09T05:49:10.008Z,93.10
2018-06-09T05:49:43.041Z,93.10
2018-06-09T05:50:16.079Z,93.00
2018-06-09T05:50:49.113Z,93.00
2018-06-09T05:51:22.912Z,92.90
2018-06-09T05:51:56.536Z,92.90
2018-06-09T05:52:29.601Z,92.80
2018-06-09T05:53:02.645Z,92.80
2018-06-09T05:53:36.433Z,92.70
2018-06-09T05:54:10.231Z,92.80
2018-06-09T05:54:43.274Z,92.70
2018-06-09T05:55:16.312Z,92.60
2018-06-09T05:55:49.368Z,92.60
2018-06-09T05:56:22.396Z,92.50
2018-06-09T05:56:55.448Z,92.60
2018-06-09T05:57:28.488Z,92.70
2018-06-09T05:58:01.696Z,92.60
2018-06-09T05:58:34.747Z,92.70
2018-06-09T05:59:07.778Z,92.60
2018-06-09T05:59:40.822Z,92.60
2018-06-09T06:00:13.885Z,92.60
2018-06-09T06:00:46.932Z,92.60
2018-06-09T06:01:19.975Z,92.60
2018-06-09T06:01:53.013Z,92.60
2018-06-09T06:02:26.071Z,92.60
2018-06-09T06:02:59.133Z,92.60
2018-06-09T06:03:32.268Z,92.50
2018-06-09T06:04:05.316Z,92.50
2018-06-09T06:04:38.344Z,92.50
2018-06-09T06:05:12.183Z,92.40
2018-06-09T06:05:45.211Z,92.40
2018-06-09T06:06:18.259Z,92.30
2018-06-09T06:06:51.307Z,92.30
2018-06-09T06:07:24.344Z,92.20
2018-06-09T06:07:57.391Z,92.20
2018-06-09T06:08:30.447Z,92.10
2018-06-09T06:09:03.485Z,92.20
2018-06-09T06:09:36.533Z,92.20
2018-06-09T06:10:09.577Z,92.10
2018-06-09T06:10:42.612Z,92.10
2018-06-09T06:11:15.672Z,92.10
2018-06-09T06:11:49.467Z,92.10
2018-06-09T06:12:23.280Z,92.00
2018-06-09T06:12:56.336Z,92.00
2018-06-09T06:13:29.376Z,92.00
2018-06-09T06:14:02.431Z,92.00
2018-06-09T06:14:35.464Z,92.00
2018-06-09T06:15:08.560Z,92.00
2018-06-09T06:15:41.667Z,92.30
2018-06-09T06:16:14.688Z,92.30
2018-06-09T06:16:47.734Z,92.40
2018-06-09T06:17:20.771Z,91.90
2018-06-09T06:17:53.807Z,91.70
2018-06-09T06:18:26.856Z,91.70
2018-06-09T06:18:59.884Z,91.70
2018-06-09T06:19:32.932Z,91.70
2018-06-09T06:20:06.745Z,91.60
2018-06-09T06:20:40.550Z,91.60
2018-06-09T06:21:13.596Z,91.60
2018-06-09T06:21:46.632Z,91.60
2018-06-09T06:22:19.672Z,91.70
2018-06-09T06:22:52.738Z,91.70
2018-06-09T06:23:25.813Z,91.70
2018-06-09T06:23:58.845Z,91.90
2018-06-09T06:24:31.883Z,91.70
2018-06-09T06:25:04.931Z,91.70
2018-06-09T06:25:37.959Z,91.60
2018-06-09T06:26:11.129Z,91.90
2018-06-09T06:26:44.485Z,91.60
2018-06-09T06:27:17.653Z,92.00
2018-06-09T06:27:50.861Z,91.90
2018-06-09T06:28:23.925Z,91.40
2018-06-09T06:28:56.968Z,91.30
2018-06-09T06:29:30.008Z,91.20
2018-06-09T06:30:03.064Z,91.10
2018-06-09T06:30:36.105Z,91.40
2018-06-09T06:31:09.162Z,91.10
2018-06-09T06:31:42.471Z,91.30
2018-06-09T06:32:15.955Z,91.40
2018-06-09T06:32:49.029Z,91.10
2018-06-09T06:33:22.853Z,91.20
2018-06-09T06:33:55.904Z,91.20
2018-06-09T06:34:28.944Z,91.00
2018-06-09T06:35:01.986Z,90.90
2018-06-09T06:35:35.029Z,90.80
2018-06-09T06:36:08.823Z,90.70
2018-06-09T06:36:41.869Z,90.70
2018-06-09T06:37:15.066Z,90.70
2018-06-09T06:37:48.104Z,90.70
2018-06-09T06:38:21.155Z,90.70
2018-06-09T06:38:54.189Z,90.80
2018-06-09T06:39:27.224Z,90.80
2018-06-09T06:40:00.269Z,90.90
2018-06-09T06:40:33.312Z,90.70
2018-06-09T06:41:06.363Z,90.50
2018-06-09T06:41:39.416Z,90.40
2018-06-09T06:42:12.435Z,90.50
2018-06-09T06:42:45.472Z,90.40
2018-06-09T06:43:18.552Z,90.40
2018-06-09T06:43:52.355Z,90.40
2018-06-09T06:44:26.172Z,91.10
2018-06-09T06:44:59.234Z,91.10
2018-06-09T06:45:33.040Z,90.60
2018-06-09T06:46:06.067Z,90.60
2018-06-09T06:46:39.876Z,90.30
2018-06-09T06:47:12.979Z,90.30
2018-06-09T06:47:45.956Z,90.20
2018-06-09T06:48:19.017Z,90.10
2018-06-09T06:48:52.195Z,90.70
2018-06-09T06:49:25.244Z,90.40
2018-06-09T06:49:59.042Z,90.00
2018-06-09T06:50:32.088Z,90.30
2018-06-09T06:51:05.139Z,90.00
2018-06-09T06:51:38.402Z,89.40
2018-06-09T06:52:11.436Z,89.00
2018-06-09T06:52:45.245Z,89.30
2018-06-09T06:53:18.313Z,89.20
2018-06-09T06:53:51.344Z,89.60
2018-06-09T06:54:24.379Z,89.50
2018-06-09T06:54:57.424Z,89.30
2018-06-09T06:55:30.463Z,88.90
2018-06-09T06:56:03.525Z,89.60
2018-06-09T06:56:36.575Z,89.80
2018-06-09T06:57:09.604Z,89.00
2018-06-09T06:57:42.651Z,88.90
2018-06-09T06:58:15.689Z,89.00
2018-06-09T06:58:48.718Z,88.70
2018-06-09T06:59:21.779Z,88.80
2018-06-09T06:59:54.824Z,88.60
2018-06-09T07:00:27.861Z,88.50
2018-06-09T07:01:00.907Z,88.70
2018-06-09T07:01:33.966Z,88.70
2018-06-09T07:02:07.048Z,89.50
2018-06-09T07:02:40.048Z,89.00
2018-06-09T07:03:13.084Z,88.70
2018-06-09T07:03:46.140Z,89.00
2018-06-09T07:04:19.188Z,89.10
2018-06-09T07:04:52.239Z,88.80
2018-06-09T07:05:25.275Z,88.90
2018-06-09T07:05:58.332Z,88.90
2018-06-09T07:06:32.137Z,88.70
2018-06-09T07:07:05.192Z,88.70